Time,TemperatureF,DewpointF,PressureIn,WindDirection,WindDirectionDegrees,WindSpeedMPH,WindSpeedGustMPH,Humidity,HourlyPrecipIn,Conditions,Clouds,dailyrainin,SolarRadiationWatts/m^2,SoftwareType,DateUTC
2013-04-01 00:02:00,52.0,47.0,-100.00,West,267,2.0,3.0,82,0.00,,,0.00,0.000000,,2013-04-01 05:02:00,
2013-04-01 00:33:00,50.0,45.0,-100.00,WNW,298,3.0,6.0,83,0.00,,,0.00,0.000000,,2013-04-01 05:33:00,
2013-04-01 00:43:00,50.0,45.0,-100.00,WNW,298,3.0,6.0,83,0.00,,,0.00,0.000000,,2013-04-01 05:43:00,
2013-04-01 00:53:00,50.0,45.0,-100.00,WNW,298,3.0,6.0,83,0.00,,,0.00,0.000000,,2013-04-01 05:53:00,
2013-04-01 01:02:00,50.0,45.0,-100.00,WNW,298,3.0,6.0,83,0.00,,,0.00,0.000000,,2013-04-01 06:02:00,
2013-04-01 01:34:00,52.0,47.0,-100.00,WNW,296,4.0,10.0,82,0.00,,,0.00,0.000000,,2013-04-01 06:34:00,
2013-04-01 01:43:00,52.0,47.0,-100.00,WNW,296,4.0,10.0,82,0.00,,,0.00,0.000000,,2013-04-01 06:43:00,
2013-04-01 01:53:00,52.0,47.0,-100.00,WNW,296,4.0,10.0,82,0.00,,,0.00,0.000000,,2013-04-01 06:53:00,
2013-04-01 02:02:00,52.0,47.0,-100.00,WNW,296,4.0,10.0,82,0.00,,,0.00,0.000000,,2013-04-01 07:02:00,
2013-04-01 02:32:00,48.0,46.0,-100.00,NNW,344,0.0,5.0,92,0.00,,,-99.99,0.000000,,2013-04-01 07:32:00,
2013-04-01 02:43:00,48.0,46.0,-100.00,NNW,344,0.0,5.0,92,0.00,,,-99.99,0.000000,,2013-04-01 07:43:00,
2013-04-01 02:53:00,48.0,46.0,-100.00,NNW,344,0.0,5.0,92,0.00,,,-99.99,0.000000,,2013-04-01 07:53:00,
2013-04-01 03:03:00,48.0,46.0,-100.00,NNW,344,0.0,5.0,92,0.00,,,-99.99,0.000000,,2013-04-01 08:03:00,
2013-04-01 03:32:00,44.0,43.0,-100.00,North,356,2.0,4.0,96,0.00,,,-99.99,0.000000,,2013-04-01 08:32:00,
2013-04-01 03:43:00,44.0,43.0,-100.00,North,356,2.0,4.0,96,0.00,,,-99.99,0.000000,,2013-04-01 08:43:00,
2013-04-01 03:53:00,44.0,43.0,-100.00,North,356,2.0,4.0,96,0.00,,,-99.99,0.000000,,2013-04-01 08:53:00,
2013-04-01 04:02:00,44.0,43.0,-100.00,North,356,2.0,4.0,96,0.00,,,-99.99,0.000000,,2013-04-01 09:02:00,
2013-04-01 04:33:00,45.0,39.0,-100.00,NNE,14,6.0,14.0,78,0.00,,,0.00,0.000000,,2013-04-01 09:33:00,
2013-04-01 04:43:00,45.0,39.0,-100.00,NNE,14,6.0,14.0,78,0.00,,,0.00,0.000000,,2013-04-01 09:43:00,
2013-04-01 04:53:00,45.0,39.0,-100.00,NNE,14,6.0,14.0,78,0.00,,,0.00,0.000000,,2013-04-01 09:53:00,
2013-04-01 05:03:00,45.0,39.0,-100.00,NNE,14,6.0,14.0,78,0.00,,,0.00,0.000000,,2013-04-01 10:03:00,
2013-04-01 05:34:00,43.0,32.0,-100.00,NNE,20,6.0,12.0,66,0.00,,,0.00,0.000000,,2013-04-01 10:34:00,
2013-04-01 05:43:00,43.0,32.0,-100.00,NNE,20,6.0,12.0,66,0.00,,,0.00,0.000000,,2013-04-01 10:43:00,
2013-04-01 05:53:00,43.0,32.0,-100.00,NNE,20,6.0,12.0,66,0.00,,,0.00,0.000000,,2013-04-01 10:53:00,
2013-04-01 06:03:00,43.0,32.0,-100.00,NNE,20,6.0,12.0,66,0.00,,,0.00,0.000000,,2013-04-01 11:03:00,
2013-04-01 06:33:00,42.0,31.0,-100.00,NNE,18,6.0,13.0,64,0.00,,,0.00,0.000000,,2013-04-01 11:33:00,
2013-04-01 06:43:00,42.0,31.0,-100.00,NNE,18,6.0,13.0,64,0.00,,,0.00,0.000000,,2013-04-01 11:43:00,
2013-04-01 06:53:00,42.0,31.0,-100.00,NNE,18,6.0,13.0,64,0.00,,,0.00,0.000000,,2013-04-01 11:53:00,
2013-04-01 07:02:00,42.0,31.0,-100.00,NNE,18,6.0,13.0,64,0.00,,,0.00,0.000000,,2013-04-01 12:02:00,
2013-04-01 07:32:00,40.0,31.0,-100.00,NNE,17,4.0,13.0,69,0.00,,,-99.99,6.000000,,2013-04-01 12:32:00,
2013-04-01 07:43:00,40.0,31.0,-100.00,NNE,17,4.0,13.0,69,0.00,,,-99.99,6.000000,,2013-04-01 12:43:00,
2013-04-01 07:53:00,40.0,31.0,-100.00,NNE,17,4.0,13.0,69,0.00,,,-99.99,6.000000,,2013-04-01 12:53:00,
2013-04-01 08:02:00,40.0,31.0,-100.00,NNE,17,4.0,13.0,69,0.00,,,-99.99,6.000000,,2013-04-01 13:02:00,
2013-04-01 08:33:00,43.0,28.0,-100.00,North,1,8.0,13.0,55,0.00,,,0.00,126.000000,,2013-04-01 13:33:00,
2013-04-01 08:43:00,43.0,28.0,-100.00,North,1,8.0,13.0,55,0.00,,,0.00,126.000000,,2013-04-01 13:43:00,
2013-04-01 08:53:00,43.0,28.0,-100.00,North,1,8.0,13.0,55,0.00,,,0.00,126.000000,,2013-04-01 13:53:00,
2013-04-01 09:03:00,43.0,28.0,-100.00,North,1,8.0,13.0,55,0.00,,,0.00,126.000000,,2013-04-01 14:03:00,
2013-04-01 09:33:00,45.0,30.0,-100.00,NNE,13,8.0,14.0,55,0.00,,,0.00,287.000000,,2013-04-01 14:33:00,
2013-04-01 09:43:00,45.0,30.0,-100.00,NNE,13,8.0,14.0,55,0.00,,,0.00,287.000000,,2013-04-01 14:43:00,
2013-04-01 09:53:00,45.0,30.0,-100.00,NNE,13,8.0,14.0,55,0.00,,,0.00,287.000000,,2013-04-01 14:53:00,
2013-04-01 10:03:00,45.0,30.0,-100.00,NNE,13,8.0,14.0,55,0.00,,,0.00,287.000000,,2013-04-01 15:03:00,
2013-04-01 10:34:00,47.0,29.0,-100.00,North,360,8.0,16.0,50,0.00,,,0.00,562.000000,,2013-04-01 15:34:00,
2013-04-01 10:43:00,47.0,29.0,-100.00,North,360,8.0,16.0,50,0.00,,,0.00,562.000000,,2013-04-01 15:43:00,
2013-04-01 10:54:00,47.0,29.0,-100.00,North,360,8.0,16.0,50,0.00,,,0.00,562.000000,,2013-04-01 15:54:00,
2013-04-01 11:03:00,47.0,29.0,-100.00,North,360,8.0,16.0,50,0.00,,,0.00,562.000000,,2013-04-01 16:03:00,
2013-04-01 12:32:00,51.0,32.0,-100.00,NNW,347,7.0,14.0,48,-99.99,,,0.00,889.000000,,2013-04-01 17:32:00,
2013-04-01 12:42:00,51.0,32.0,-100.00,NNW,347,7.0,14.0,48,-99.99,,,0.00,889.000000,,2013-04-01 17:42:00,
2013-04-01 12:53:00,51.0,32.0,-100.00,NNW,347,7.0,14.0,48,-99.99,,,0.00,889.000000,,2013-04-01 17:53:00,
2013-04-01 13:02:00,51.0,32.0,-100.00,NNW,347,7.0,14.0,48,-99.99,,,0.00,889.000000,,2013-04-01 18:02:00,
2013-04-01 13:33:00,50.0,32.0,-100.00,North,359,9.0,16.0,49,0.00,,,0.00,795.000000,,2013-04-01 18:33:00,
2013-04-01 13:43:00,50.0,32.0,-100.00,North,359,9.0,16.0,49,0.00,,,0.00,795.000000,,2013-04-01 18:43:00,
2013-04-01 13:53:00,50.0,32.0,-100.00,North,359,9.0,16.0,49,0.00,,,0.00,795.000000,,2013-04-01 18:53:00,
2013-04-01 14:03:00,50.0,32.0,-100.00,North,359,9.0,16.0,49,0.00,,,0.00,795.000000,,2013-04-01 19:03:00,
2013-04-01 14:33:00,52.0,31.0,-100.00,NW,320,10.0,17.0,45,0.00,,,0.00,987.000000,,2013-04-01 19:33:00,
2013-04-01 14:43:00,52.0,31.0,-100.00,NW,320,10.0,17.0,45,0.00,,,0.00,987.000000,,2013-04-01 19:43:00,
2013-04-01 14:53:00,52.0,31.0,-100.00,NW,320,10.0,17.0,45,0.00,,,0.00,987.000000,,2013-04-01 19:53:00,
2013-04-01 15:02:00,52.0,31.0,-100.00,NW,320,10.0,17.0,45,0.00,,,0.00,987.000000,,2013-04-01 20:02:00,
2013-04-01 16:33:00,52.0,26.0,-100.00,NNW,330,11.0,21.0,36,-99.99,,,0.00,784.000000,,2013-04-01 21:33:00,
2013-04-01 16:43:00,52.0,26.0,-100.00,NNW,330,11.0,21.0,36,-99.99,,,0.00,784.000000,,2013-04-01 21:43:00,
2013-04-01 16:53:00,52.0,26.0,-100.00,NNW,330,11.0,21.0,36,-99.99,,,0.00,784.000000,,2013-04-01 21:53:00,
2013-04-01 17:02:00,52.0,26.0,-100.00,NNW,330,11.0,21.0,36,-99.99,,,0.00,784.000000,,2013-04-01 22:02:00,
2013-04-01 17:33:00,50.0,23.0,-100.00,NNW,330,11.0,18.0,34,0.00,,,0.00,582.000000,,2013-04-01 22:33:00,
2013-04-01 17:43:00,50.0,23.0,-100.00,NNW,330,11.0,18.0,34,0.00,,,0.00,582.000000,,2013-04-01 22:43:00,
2013-04-01 17:52:00,50.0,23.0,-100.00,NNW,330,11.0,18.0,34,0.00,,,0.00,582.000000,,2013-04-01 22:52:00,
2013-04-01 18:02:00,50.0,23.0,-100.00,NNW,330,11.0,18.0,34,0.00,,,0.00,582.000000,,2013-04-01 23:02:00,
2013-04-01 18:32:00,49.0,22.0,-100.00,NW,326,10.0,17.0,34,0.00,,,0.00,374.000000,,2013-04-01 23:32:00,
2013-04-01 18:43:00,49.0,22.0,-100.00,NW,326,10.0,17.0,34,0.00,,,0.00,374.000000,,2013-04-01 23:43:00,
2013-04-01 18:53:00,49.0,22.0,-100.00,NW,326,10.0,17.0,34,0.00,,,0.00,374.000000,,2013-04-01 23:53:00,
2013-04-01 19:03:00,49.0,22.0,-100.00,NW,326,10.0,17.0,34,0.00,,,0.00,374.000000,,2013-04-02 00:03:00,
2013-04-01 19:33:00,46.0,23.0,-100.00,North,1,5.0,13.0,40,0.00,,,0.00,112.000000,,2013-04-02 00:33:00,
2013-04-01 19:43:00,46.0,23.0,-100.00,North,1,5.0,13.0,40,0.00,,,0.00,112.000000,,2013-04-02 00:43:00,
2013-04-01 19:53:00,46.0,23.0,-100.00,North,1,5.0,13.0,40,0.00,,,0.00,112.000000,,2013-04-02 00:53:00,
2013-04-01 20:02:00,46.0,23.0,-100.00,North,1,5.0,13.0,40,0.00,,,0.00,112.000000,,2013-04-02 01:02:00,
2013-04-01 20:32:00,43.0,24.0,-100.00,NNE,25,3.0,11.0,46,0.00,,,0.00,2.000000,,2013-04-02 01:32:00,
2013-04-01 20:43:00,43.0,24.0,-100.00,NNE,25,3.0,11.0,46,0.00,,,0.00,2.000000,,2013-04-02 01:43:00,
2013-04-01 20:53:00,43.0,24.0,-100.00,NNE,25,3.0,11.0,46,0.00,,,0.00,2.000000,,2013-04-02 01:53:00,
2013-04-01 21:02:00,43.0,24.0,-100.00,NNE,25,3.0,11.0,46,0.00,,,0.00,2.000000,,2013-04-02 02:02:00,
2013-04-01 21:33:00,42.0,25.0,-100.00,NNE,23,3.0,5.0,50,0.00,,,0.00,0.000000,,2013-04-02 02:33:00,
2013-04-01 21:42:00,42.0,25.0,-100.00,NNE,23,3.0,5.0,50,0.00,,,0.00,0.000000,,2013-04-02 02:42:00,
2013-04-01 21:53:00,42.0,25.0,-100.00,NNE,23,3.0,5.0,50,0.00,,,0.00,0.000000,,2013-04-02 02:53:00,
2013-04-01 22:02:00,42.0,25.0,-100.00,NNE,23,3.0,5.0,50,0.00,,,0.00,0.000000,,2013-04-02 03:02:00,
2013-04-01 22:33:00,41.0,24.0,-100.00,NNE,16,3.0,6.0,51,0.00,,,0.00,0.000000,,2013-04-02 03:33:00,
2013-04-01 22:43:00,41.0,24.0,-100.00,NNE,16,3.0,6.0,51,0.00,,,0.00,0.000000,,2013-04-02 03:43:00,
2013-04-01 22:53:00,41.0,24.0,-100.00,NNE,16,3.0,6.0,51,0.00,,,0.00,0.000000,,2013-04-02 03:53:00,
2013-04-01 23:03:00,41.0,24.0,-100.00,NNE,16,3.0,6.0,51,0.00,,,0.00,0.000000,,2013-04-02 04:03:00,
2013-04-01 23:33:00,39.0,23.0,-100.00,NNE,28,2.0,4.0,52,0.00,,,0.00,0.000000,,2013-04-02 04:33:00,
2013-04-01 23:43:00,39.0,23.0,-100.00,NNE,28,2.0,4.0,52,0.00,,,0.00,0.000000,,2013-04-02 04:43:00,
2013-04-01 23:53:00,39.0,23.0,-100.00,NNE,28,2.0,4.0,52,0.00,,,0.00,0.000000,,2013-04-02 04:53:00,